Time;durP1;ratioP1;P1;durP2;ratioP2;P2;SDS_P1;SDS_P2;PMS_P1;PMS_P2;Temp;Humidity;BMP_temperature;BMP_pressure;BME280_temperature;BME280_humidity;BME280_pressure;Samples;Min_cycle;Max_cycle;Signal;HPM_P1;HPM_P2
2021/01/13 00:01:31;;;;;;;5.60;2.38;;;1.30;99.90;;;;;;5103459;28;20249;-80
2021/01/13 00:03:58;;;;;;;6.18;1.73;;;1.30;99.90;;;;;;5106734;28;20288;-82
2021/01/13 00:06:24;;;;;;;6.10;2.05;;;1.30;99.90;;;;;;5103875;28;20597;-83
2021/01/13 00:08:50;;;;;;;6.55;2.17;;;1.30;99.90;;;;;;5098299;28;20689;-82
2021/01/13 00:11:17;;;;;;;7.13;2.63;;;1.30;99.90;;;;;;5101324;28;20200;-79
2021/01/13 00:13:44;;;;;;;6.50;1.85;;;1.30;99.90;;;;;;5110537;28;20229;-80
2021/01/13 00:16:13;;;;;;;6.47;1.70;;;1.20;99.90;;;;;;5111336;28;20264;-81
2021/01/13 00:18:40;;;;;;;3.75;1.98;;;1.20;99.90;;;;;;5109244;28;20236;-80
2021/01/13 00:21:12;;;;;;;14.15;2.50;;;1.20;99.90;;;;;;5109375;28;20217;-78
2021/01/13 00:23:41;;;;;;;8.82;2.05;;;1.10;99.90;;;;;;5107541;28;20241;-79
2021/01/13 00:26:08;;;;;;;2.63;1.40;;;1.20;99.90;;;;;;5111150;28;20284;-78
2021/01/13 00:28:34;;;;;;;3.63;2.05;;;1.20;99.90;;;;;;5109710;28;20292;-79
2021/01/13 00:31:00;;;;;;;5.30;2.40;;;1.20;99.90;;;;;;5110863;28;20280;-80
2021/01/13 00:33:27;;;;;;;2.80;1.67;;;1.10;99.90;;;;;;5107508;28;20213;-79
2021/01/13 00:35:54;;;;;;;3.55;1.70;;;1.20;99.90;;;;;;5107801;28;20208;-82
2021/01/13 00:38:20;;;;;;;6.88;2.20;;;1.10;99.90;;;;;;5110049;28;20269;-80
2021/01/13 00:40:47;;;;;;;5.43;2.00;;;1.10;99.90;;;;;;5110436;28;20221;-82
2021/01/13 00:43:13;;;;;;;2.33;1.65;;;1.10;99.90;;;;;;5098867;28;20616;-82
2021/01/13 00:45:39;;;;;;;6.65;2.30;;;1.10;99.90;;;;;;5097610;28;20202;-83
2021/01/13 00:48:07;;;;;;;7.38;1.88;;;1.10;99.90;;;;;;5096079;28;20209;-81
2021/01/13 00:50:33;;;;;;;5.97;1.92;;;1.20;99.90;;;;;;5096190;28;20193;-81
2021/01/13 00:53:00;;;;;;;3.15;2.33;;;1.20;99.90;;;;;;5097470;28;20232;-83
2021/01/13 00:55:28;;;;;;;3.97;1.83;;;1.20;99.90;;;;;;5096667;28;20220;-83
2021/01/13 00:57:54;;;;;;;4.00;2.75;;;1.20;99.90;;;;;;5097840;28;20689;-82
2021/01/13 01:00:21;;;;;;;4.10;1.60;;;1.20;99.90;;;;;;5100074;28;20566;-82
2021/01/13 01:02:48;;;;;;;7.45;2.05;;;1.20;99.90;;;;;;5100955;28;20304;-82
2021/01/13 01:05:14;;;;;;;1.73;1.63;;;1.20;99.90;;;;;;5104595;28;20201;-82
2021/01/13 03:16:10;;;;;;;6.70;2.60;;;1.90;99.90;;;;;;5112462;28;20206;-80
2021/01/13 03:18:47;;;;;;;10.43;4.50;;;1.90;99.90;;;;;;5106980;28;20240;-82
2021/01/13 03:21:19;;;;;;;5.57;3.05;;;1.90;99.90;;;;;;5106765;28;20205;-82
2021/01/13 03:23:54;;;;;;;11.73;4.75;;;1.90;99.90;;;;;;5106938;28;20304;-82
2021/01/13 03:26:28;;;;;;;5.68;3.15;;;1.90;99.90;;;;;;5103049;28;20197;-83
2021/01/13 03:28:57;;;;;;;5.15;2.78;;;1.90;99.90;;;;;;5102161;28;20181;-83
2021/01/13 03:31:26;;;;;;;10.18;2.83;;;1.90;99.90;;;;;;5103045;28;20197;-79
2021/01/13 03:34:23;;;;;;;9.30;3.30;;;1.90;99.90;;;;;;5104813;28;20238;-81
2021/01/13 03:36:58;;;;;;;10.20;4.30;;;1.90;99.90;;;;;;5103183;28;20186;-81
2021/01/13 03:39:28;;;;;;;6.00;2.90;;;1.90;99.90;;;;;;5103170;28;20664;-80
2021/01/13 03:42:08;;;;;;;10.88;3.53;;;1.90;99.90;;;;;;5100489;28;20217;-81
2021/01/13 03:44:36;;;;;;;6.00;3.80;;;1.80;99.90;;;;;;5101461;28;20189;-82
2021/01/13 03:47:55;;;;;;;3.35;2.42;;;1.80;99.90;;;;;;5100477;28;20246;-82
2021/01/13 03:50:24;;;;;;;9.13;2.70;;;1.80;99.90;;;;;;5102077;28;20197;-82
2021/01/13 03:52:56;;;;;;;6.70;3.38;;;1.80;99.90;;;;;;5100852;28;20283;-80
2021/01/13 03:55:27;;;;;;;7.38;3.50;;;1.90;99.90;;;;;;5102011;28;20266;-81
2021/01/13 03:58:30;;;;;;;9.07;2.85;;;1.90;99.90;;;;;;5101936;28;20213;-82
2021/01/13 04:01:05;;;;;;;9.65;2.70;;;1.90;99.90;;;;;;5100845;28;20257;-79
2021/01/13 04:03:37;;;;;;;5.20;2.70;;;2.00;99.90;;;;;;5101463;28;20306;-82
2021/01/13 04:06:06;;;;;;;10.10;3.60;;;1.80;99.90;;;;;;5100034;28;20658;-82
2021/01/13 04:08:36;;;;;;;13.48;3.17;;;1.90;99.90;;;;;;5097223;28;20197;-82
2021/01/13 04:11:08;;;;;;;3.85;3.08;;;1.80;99.90;;;;;;5098100;28;20217;-80
2021/01/13 04:13:40;;;;;;;6.25;3.08;;;1.90;99.90;;;;;;5098867;28;20228;-84
2021/01/13 04:16:08;;;;;;;7.30;3.20;;;1.90;99.90;;;;;;5101493;28;20558;-81
2021/01/13 04:18:36;;;;;;;5.30;3.00;;;1.90;99.90;;;;;;5101949;28;20197;-80
2021/01/13 04:21:03;;;;;;;9.73;3.00;;;1.90;99.90;;;;;;5101132;28;20231;-82
2021/01/13 04:23:31;;;;;;;6.82;3.50;;;1.90;99.90;;;;;;5100292;28;20285;-82
2021/01/13 04:25:58;;;;;;;5.93;2.75;;;1.90;99.90;;;;;;5101332;28;20284;-83
2021/01/13 04:28:26;;;;;;;7.97;3.65;;;1.80;99.90;;;;;;5099495;28;20205;-82
2021/01/13 04:30:53;;;;;;;8.75;3.90;;;1.90;99.90;;;;;;5099190;28;20432;-80
2021/01/13 04:33:20;;;;;;;4.35;3.35;;;1.80;99.90;;;;;;5100944;28;20232;-80
2021/01/13 04:35:48;;;;;;;8.30;3.55;;;1.90;99.90;;;;;;5100250;28;20251;-80
2021/01/13 04:38:20;;;;;;;3.35;3.10;;;1.90;99.90;;;;;;5099621;28;20228;-81
2021/01/13 04:40:50;;;;;;;14.35;3.92;;;1.90;99.90;;;;;;5102297;28;20216;-81
2021/01/13 04:43:23;;;;;;;9.73;2.90;;;1.90;99.90;;;;;;5101290;28;20225;-82
2021/01/13 04:45:50;;;;;;;4.05;3.15;;;1.90;99.90;;;;;;5100752;28;20650;-80
2021/01/13 04:48:18;;;;;;;6.72;3.00;;;1.90;99.90;;;;;;5102022;28;20238;-80
2021/01/13 04:50:46;;;;;;;9.18;3.50;;;1.90;99.90;;;;;;5102176;28;20458;-80
2021/01/13 04:53:16;;;;;;;10.70;3.97;;;1.80;99.90;;;;;;5100467;28;20444;-83
2021/01/13 04:55:51;;;;;;;7.13;4.13;;;1.90;99.90;;;;;;5101979;28;20418;-82
2021/01/13 04:59:00;;;;;;;12.82;3.70;;;1.90;99.90;;;;;;5101995;28;20204;-81
2021/01/13 05:02:03;;;;;;;7.43;2.80;;;1.90;99.90;;;;;;5101766;28;20221;-81
2021/01/13 05:05:00;;;;;;;10.38;4.80;;;2.00;99.90;;;;;;5100783;28;20225;-82
2021/01/13 05:07:37;;;;;;;4.53;2.78;;;1.90;99.90;;;;;;5101231;28;20205;-81
2021/01/13 05:10:07;;;;;;;7.72;3.15;;;1.80;99.90;;;;;;5099910;28;20549;-82
2021/01/13 05:12:50;;;;;;;7.85;4.25;;;1.80;99.90;;;;;;5099915;28;20727;-82
2021/01/13 05:15:18;;;;;;;7.22;3.22;;;1.80;99.90;;;;;;5105593;28;20189;-81
2021/01/13 05:17:59;;;;;;;4.72;3.60;;;1.80;99.90;;;;;;5103668;28;20205;-81
2021/01/13 05:20:27;;;;;;;4.97;3.40;;;1.80;99.90;;;;;;5100796;28;20613;-81
2021/01/13 05:22:55;;;;;;;8.30;3.10;;;1.80;99.90;;;;;;5098915;28;20222;-81
2021/01/13 05:25:38;;;;;;;6.55;3.63;;;1.70;99.90;;;;;;5098881;28;20436;-81
2021/01/13 05:28:08;;;;;;;7.78;3.25;;;1.70;99.90;;;;;;5097820;28;20548;-81
2021/01/13 05:30:36;;;;;;;7.22;4.00;;;1.70;99.90;;;;;;5099026;28;20212;-81
2021/01/13 05:33:13;;;;;;;6.93;3.92;;;1.70;99.90;;;;;;5098344;28;20233;-81
2021/01/13 05:35:42;;;;;;;3.40;2.75;;;1.70;99.90;;;;;;5098074;28;20192;-80
2021/01/13 05:38:16;;;;;;;7.68;3.00;;;1.70;99.90;;;;;;5106479;28;20247;-78
2021/01/13 05:40:48;;;;;;;7.57;3.17;;;1.70;99.90;;;;;;5115982;28;20220;-79
2021/01/13 05:55:07;;;;;;;5.88;2.83;;;1.80;99.90;;;;;;5010433;28;20244;-82
2021/01/13 06:15:25;;;;;;;3.53;2.88;;;1.70;99.90;;;;;;4987625;28;20200;-81
2021/01/13 06:17:53;;;;;;;6.15;2.80;;;1.70;99.90;;;;;;5083468;22;20244;-80
2021/01/13 06:20:21;;;;;;;7.40;4.15;;;1.70;99.90;;;;;;5078083;28;20208;-82
2021/01/13 06:22:50;;;;;;;5.65;3.63;;;1.70;99.90;;;;;;5078946;28;20198;-81
2021/01/13 06:25:22;;;;;;;5.88;3.97;;;1.70;99.90;;;;;;5078257;28;20643;-82
2021/01/13 06:28:12;;;;;;;7.03;3.20;;;1.70;99.90;;;;;;5078356;28;20604;-81
2021/01/13 06:30:41;;;;;;;4.18;3.17;;;1.70;99.90;;;;;;5079303;28;20603;-81
2021/01/13 06:33:10;;;;;;;10.07;3.25;;;1.80;99.90;;;;;;5078718;28;20273;-82
2021/01/13 06:36:20;;;;;;;9.32;4.28;;;1.80;99.90;;;;;;5077838;28;20694;-82
2021/01/13 06:38:53;;;;;;;6.95;3.78;;;1.80;99.90;;;;;;5078882;28;20187;-81
2021/01/13 06:41:20;;;;;;;7.30;3.60;;;1.90;99.90;;;;;;5080741;28;20260;-81
2021/01/13 06:44:04;;;;;;;5.40;3.75;;;1.90;99.90;;;;;;5084638;28;20207;-79
2021/01/13 06:46:33;;;;;;;9.20;3.40;;;1.90;99.90;;;;;;5088243;28;20253;-81
2021/01/13 06:49:16;;;;;;;8.02;3.25;;;1.90;99.90;;;;;;5088265;28;20659;-81
2021/01/13 06:51:44;;;;;;;7.13;3.90;;;1.80;99.90;;;;;;5083290;28;20203;-83
2021/01/13 06:54:13;;;;;;;6.60;3.55;;;1.90;99.90;;;;;;5086204;28;20206;-81
2021/01/13 06:56:48;;;;;;;8.20;4.65;;;1.90;99.90;;;;;;5083235;28;20309;-81
2021/01/13 06:59:16;;;;;;;11.10;3.50;;;2.00;99.90;;;;;;5079008;28;20258;-81
2021/01/13 07:01:50;;;;;;;7.75;4.40;;;2.00;99.90;;;;;;5078064;28;20574;-81
2021/01/13 07:04:17;;;;;;;6.55;3.38;;;2.00;99.90;;;;;;5076437;28;20199;-79
2021/01/13 07:07:00;;;;;;;7.13;3.53;;;2.10;99.90;;;;;;5076658;28;20309;-82
2021/01/13 07:09:34;;;;;;;5.95;3.42;;;2.10;99.90;;;;;;5076505;28;20208;-80
2021/01/13 07:12:07;;;;;;;4.90;3.20;;;2.10;99.90;;;;;;5076866;28;20221;-81
2021/01/13 07:14:36;;;;;;;11.27;4.43;;;2.10;99.90;;;;;;5079629;28;20209;-82
2021/01/13 07:17:05;;;;;;;5.03;3.40;;;2.10;99.90;;;;;;5084821;28;20621;-81
2021/01/13 07:19:34;;;;;;;5.90;3.58;;;2.10;99.90;;;;;;5086286;28;20198;-82
2021/01/13 07:22:01;;;;;;;9.60;3.72;;;2.10;99.90;;;;;;5086031;28;20245;-82
2021/01/13 07:24:29;;;;;;;5.70;2.92;;;2.10;99.90;;;;;;5084916;28;20316;-83
2021/01/13 07:26:57;;;;;;;8.68;3.60;;;2.20;99.90;;;;;;5085065;28;20222;-82
2021/01/13 07:29:25;;;;;;;7.07;3.90;;;2.10;99.90;;;;;;5082362;28;20662;-81
2021/01/13 07:31:55;;;;;;;7.78;3.33;;;2.10;99.90;;;;;;5082128;28;20331;-81
2021/01/13 07:34:29;;;;;;;4.28;2.63;;;2.10;99.90;;;;;;5079561;28;20206;-81
2021/01/13 07:37:00;;;;;;;5.82;3.17;;;2.20;99.90;;;;;;5078339;28;20257;-81
2021/01/13 07:40:10;;;;;;;4.30;3.22;;;2.40;99.90;;;;;;5078207;28;20213;-81
2021/01/13 07:42:38;;;;;;;8.85;3.38;;;2.30;99.90;;;;;;5077908;28;20221;-80
2021/01/13 07:45:07;;;;;;;5.07;3.42;;;2.30;99.90;;;;;;5077869;28;20696;-80
2021/01/13 07:48:12;;;;;;;6.65;3.50;;;2.40;99.90;;;;;;5078514;28;20260;-80
2021/01/13 07:50:40;;;;;;;8.48;4.10;;;2.40;99.90;;;;;;5077052;28;20616;-81
2021/01/13 07:53:10;;;;;;;7.47;3.50;;;2.40;99.90;;;;;;5076547;28;20247;-81
2021/01/13 07:55:42;;;;;;;6.57;3.80;;;2.40;99.90;;;;;;5076960;28;20209;-81
2021/01/13 07:58:20;;;;;;;6.15;3.63;;;2.40;99.90;;;;;;5076476;28;20237;-81
2021/01/13 08:00:59;;;;;;;8.25;3.85;;;2.40;99.90;;;;;;5076044;28;20214;-80
2021/01/13 08:03:58;;;;;;;10.27;3.78;;;2.30;99.90;;;;;;5076603;28;20269;-80
2021/01/13 08:06:33;;;;;;;12.43;4.43;;;2.50;99.90;;;;;;5075768;28;20228;-82
2021/01/13 08:09:09;;;;;;;8.50;3.25;;;2.40;99.90;;;;;;5077205;28;20611;-80
2021/01/13 08:12:14;;;;;;;9.38;3.60;;;2.30;99.90;;;;;;5077472;28;20198;-81
2021/01/13 08:15:20;;;;;;;8.05;4.85;;;2.40;99.90;;;;;;5042048;28;20675;-82
2021/01/13 08:18:27;;;;;;;7.05;3.95;;;2.40;99.90;;;;;;5080282;28;20615;-81
2021/01/13 08:21:16;;;;;;;5.88;3.40;;;2.40;99.90;;;;;;5080473;28;20727;-81
2021/01/13 08:23:51;;;;;;;17.20;4.10;;;2.50;99.90;;;;;;5080074;28;20194;-81
2021/01/13 08:26:19;;;;;;;11.10;3.65;;;2.50;99.90;;;;;;5080231;28;20225;-82
2021/01/13 08:28:48;;;;;;;10.80;3.03;;;2.50;99.90;;;;;;5080822;28;20234;-81
2021/01/13 08:31:21;;;;;;;8.20;3.28;;;2.50;99.90;;;;;;5079912;28;20205;-81
2021/01/13 08:33:50;;;;;;;4.20;2.88;;;2.50;99.90;;;;;;5080165;28;20191;-82
2021/01/13 08:36:17;;;;;;;5.10;2.92;;;2.40;99.90;;;;;;5080785;28;20272;-82
2021/01/13 08:39:04;;;;;;;4.90;4.03;;;2.50;99.90;;;;;;5080275;28;20202;-80
2021/01/13 08:41:32;;;;;;;3.85;2.70;;;2.60;99.90;;;;;;5080844;28;20228;-81
2021/01/13 08:44:05;;;;;;;7.60;2.85;;;2.70;99.90;;;;;;5082306;28;20198;-81
2021/01/13 08:46:46;;;;;;;6.78;3.38;;;2.60;99.90;;;;;;5080809;28;20229;-82
2021/01/13 08:49:25;;;;;;;9.15;3.25;;;2.60;99.90;;;;;;5082185;28;20186;-81
2021/01/13 08:52:12;;;;;;;6.30;3.33;;;2.50;99.90;;;;;;5079763;28;20202;-82
2021/01/13 08:54:39;;;;;;;6.38;3.25;;;2.60;99.90;;;;;;5080141;28;20228;-82
2021/01/13 08:57:08;;;;;;;5.22;2.72;;;2.70;99.90;;;;;;5081181;28;20287;-83
2021/01/13 08:59:37;;;;;;;5.22;3.67;;;2.60;99.90;;;;;;5081591;28;20205;-82
2021/01/13 09:02:07;;;;;;;3.75;3.30;;;2.70;99.90;;;;;;5082093;28;20286;-82
2021/01/13 09:04:53;;;;;;;2.67;2.30;;;2.80;99.90;;;;;;5082998;28;20206;-82
2021/01/13 09:07:22;;;;;;;7.40;3.33;;;2.70;99.90;;;;;;5085356;28;20226;-81
2021/01/13 09:09:57;;;;;;;5.30;2.88;;;2.60;99.90;;;;;;5087808;28;20209;-81
2021/01/13 09:12:36;;;;;;;11.10;3.72;;;2.70;99.90;;;;;;5085352;28;20198;-80
2021/01/13 09:15:27;;;;;;;10.38;2.92;;;2.70;99.90;;;;;;5084873;28;20674;-82
2021/01/13 09:17:58;;;;;;;3.72;2.65;;;2.70;99.90;;;;;;5082485;28;20258;-81
2021/01/13 09:20:28;;;;;;;6.60;3.47;;;2.80;99.90;;;;;;5082308;28;20210;-84
2021/01/13 09:22:57;;;;;;;7.18;4.05;;;2.90;99.90;;;;;;5086187;28;20203;-80
2021/01/13 09:25:25;;;;;;;8.20;2.65;;;2.90;99.90;;;;;;5091264;28;20202;-80
2021/01/13 09:27:54;;;;;;;4.07;2.63;;;2.90;99.90;;;;;;5095325;28;20710;-80
2021/01/13 09:30:36;;;;;;;6.15;3.05;;;2.90;99.90;;;;;;5096027;28;20327;-80
2021/01/13 09:33:15;;;;;;;7.03;3.15;;;2.90;99.90;;;;;;5096365;28;20190;-83
2021/01/13 09:35:43;;;;;;;6.03;3.45;;;2.80;99.90;;;;;;5097540;28;20170;-81
2021/01/13 09:38:11;;;;;;;10.68;2.75;;;2.90;99.90;;;;;;5096621;28;20205;-81
2021/01/13 09:40:56;;;;;;;5.32;2.60;;;2.90;99.90;;;;;;5097547;28;20222;-80
2021/01/13 09:43:35;;;;;;;3.33;3.08;;;2.90;99.90;;;;;;5096793;28;20273;-79
2021/01/13 09:46:03;;;;;;;5.88;3.25;;;2.90;99.90;;;;;;5094459;28;20261;-81
2021/01/13 09:48:32;;;;;;;5.50;2.95;;;3.00;99.90;;;;;;5091679;28;20203;-82
2021/01/13 09:51:01;;;;;;;12.45;4.15;;;2.90;99.90;;;;;;5085403;28;20266;-82
2021/01/13 09:53:34;;;;;;;5.30;2.55;;;3.00;99.90;;;;;;5087658;28;20202;-80
2021/01/13 09:56:06;;;;;;;4.13;2.30;;;2.90;99.90;;;;;;5093487;28;20282;-79
2021/01/13 09:58:41;;;;;;;3.92;2.80;;;3.10;99.90;;;;;;5080441;28;20544;-80
2021/01/13 10:01:10;;;;;;;4.88;3.00;;;3.20;99.90;;;;;;5081208;28;20221;-79
2021/01/13 10:03:37;;;;;;;3.95;2.13;;;3.20;99.90;;;;;;5091077;28;20193;-79
2021/01/13 10:06:12;;;;;;;4.00;2.40;;;3.30;99.90;;;;;;5097009;28;20226;-80
2021/01/13 10:08:39;;;;;;;3.72;2.10;;;3.30;99.90;;;;;;5097995;28;20190;-83
2021/01/13 10:11:07;;;;;;;3.45;1.90;;;3.20;99.90;;;;;;5085374;28;20690;-83
2021/01/13 10:13:36;;;;;;;6.40;2.55;;;3.20;99.90;;;;;;5082840;28;20259;-82
2021/01/13 10:16:05;;;;;;;8.07;3.25;;;3.10;99.90;;;;;;5081839;28;20287;-81
2021/01/13 10:18:31;;;;;;;6.82;2.50;;;3.20;99.90;;;;;;5081366;28;20246;-81
2021/01/13 10:20:59;;;;;;;6.32;2.78;;;3.10;99.90;;;;;;5080833;28;20227;-81
2021/01/13 10:23:27;;;;;;;7.30;3.00;;;3.10;99.90;;;;;;5080334;28;20690;-81
2021/01/13 10:26:06;;;;;;;5.30;2.30;;;3.20;99.90;;;;;;5081264;28;20312;-82
2021/01/13 10:28:33;;;;;;;3.75;2.13;;;3.20;99.90;;;;;;5080750;28;20226;-82
2021/01/13 10:31:00;;;;;;;4.82;1.70;;;3.30;99.90;;;;;;5081991;28;20222;-82
2021/01/13 10:33:47;;;;;;;7.32;2.97;;;3.20;99.90;;;;;;5080867;28;20293;-81
2021/01/13 10:36:44;;;;;;;3.95;2.20;;;3.20;99.90;;;;;;5080887;28;20780;-82
2021/01/13 10:39:17;;;;;;;6.78;1.80;;;3.20;99.90;;;;;;5078532;28;20285;-81
2021/01/13 10:41:46;;;;;;;5.05;2.45;;;3.40;99.90;;;;;;5078720;28;20241;-81
2021/01/13 10:44:14;;;;;;;6.65;2.67;;;3.40;99.90;;;;;;5079848;28;20237;-79
2021/01/13 10:46:52;;;;;;;5.35;2.38;;;3.50;99.90;;;;;;5080307;28;20286;-79
2021/01/13 10:49:22;;;;;;;5.93;2.65;;;3.40;99.90;;;;;;5083525;28;20272;-81
2021/01/13 10:51:50;;;;;;;3.20;2.50;;;3.40;99.90;;;;;;5088217;28;20205;-81
2021/01/13 10:54:21;;;;;;;4.72;2.50;;;3.50;99.90;;;;;;5080027;28;20290;-81
2021/01/13 10:56:52;;;;;;;3.10;2.20;;;3.50;99.90;;;;;;5080186;28;20840;-80
2021/01/13 10:59:19;;;;;;;3.88;2.65;;;3.50;99.90;;;;;;5081565;28;20211;-82
2021/01/13 11:01:47;;;;;;;8.32;2.80;;;3.50;99.90;;;;;;5080976;28;20279;-81
2021/01/13 11:04:28;;;;;;;3.72;2.15;;;3.50;99.90;;;;;;5082079;28;20198;-81
2021/01/13 11:06:57;;;;;;;4.32;2.60;;;3.40;99.90;;;;;;5079575;28;20317;-80
2021/01/13 11:09:24;;;;;;;9.98;3.05;;;3.30;99.90;;;;;;5080463;28;20266;-81
2021/01/13 11:11:51;;;;;;;4.15;2.85;;;3.40;99.90;;;;;;5079677;28;20290;-81
2021/01/13 11:14:35;;;;;;;4.22;2.35;;;3.40;99.90;;;;;;5080849;28;20202;-81
2021/01/13 11:17:13;;;;;;;3.00;2.28;;;3.30;99.90;;;;;;5080047;28;20253;-79
2021/01/13 11:19:45;;;;;;;3.05;1.88;;;3.30;99.90;;;;;;5079928;28;20229;-80
2021/01/13 11:22:12;;;;;;;5.43;2.65;;;3.40;99.90;;;;;;5082443;28;20215;-81
2021/01/13 11:24:41;;;;;;;3.13;2.53;;;3.40;99.90;;;;;;5083218;28;20231;-80
2021/01/13 11:27:11;;;;;;;6.03;3.22;;;3.50;99.90;;;;;;5084723;28;20233;-80
2021/01/13 11:29:39;;;;;;;6.93;2.22;;;3.40;99.90;;;;;;5086626;28;20237;-80
2021/01/13 11:32:08;;;;;;;9.60;2.60;;;3.40;99.90;;;;;;5091073;28;20202;-81
2021/01/13 11:34:34;;;;;;;5.13;3.13;;;3.50;99.90;;;;;;5091579;28;20274;-81
2021/01/13 11:37:37;;;;;;;3.13;2.65;;;3.50;99.90;;;;;;5090293;28;20226;-79
2021/01/13 11:40:11;;;;;;;3.45;2.65;;;3.60;99.90;;;;;;5091381;28;20212;-80
2021/01/13 11:43:11;;;;;;;4.35;2.90;;;3.50;99.90;;;;;;5090472;28;20233;-79
2021/01/13 11:45:45;;;;;;;4.95;3.15;;;3.50;99.90;;;;;;5087388;28;20203;-79
2021/01/13 11:48:15;;;;;;;4.03;2.65;;;3.50;99.90;;;;;;5092103;28;20189;-82
2021/01/13 11:50:46;;;;;;;7.45;2.60;;;3.50;99.90;;;;;;5095136;28;20258;-81
2021/01/13 11:53:22;;;;;;;6.50;3.72;;;3.60;99.90;;;;;;5095142;28;20186;-82
2021/01/13 11:55:50;;;;;;;4.60;2.10;;;3.60;99.90;;;;;;5093482;28;20182;-81
2021/01/13 11:58:17;;;;;;;6.30;2.58;;;3.70;99.90;;;;;;5091391;28;20247;-79
2021/01/13 12:00:43;;;;;;;2.85;2.33;;;3.60;99.90;;;;;;5090828;28;20206;-80
2021/01/13 12:03:18;;;;;;;9.23;2.80;;;3.60;99.90;;;;;;5092529;28;20206;-82
2021/01/13 12:05:47;;;;;;;6.20;2.60;;;3.70;99.90;;;;;;5094078;28;20186;-81
2021/01/13 12:08:15;;;;;;;5.35;2.78;;;3.70;99.90;;;;;;5092527;28;20288;-80
2021/01/13 12:10:43;;;;;;;5.60;2.28;;;3.80;99.90;;;;;;5092538;28;20218;-81
2021/01/13 12:13:16;;;;;;;4.10;2.47;;;3.80;99.90;;;;;;5092326;28;20191;-82
2021/01/13 12:15:47;;;;;;;8.32;3.17;;;3.80;99.90;;;;;;5091828;28;20205;-81
2021/01/13 12:18:22;;;;;;;3.60;1.92;;;3.90;99.90;;;;;;5150279;22;20233;-85
2021/01/13 12:20:53;;;;;;;7.43;2.97;;;4.00;99.90;;;;;;5109972;28;20201;-84
2021/01/13 12:23:21;;;;;;;6.43;2.85;;;4.00;99.90;;;;;;5116308;28;20189;-84
2021/01/13 12:25:49;;;;;;;2.28;2.00;;;4.00;99.90;;;;;;5117655;28;20223;-84
2021/01/13 12:28:17;;;;;;;7.00;2.90;;;3.90;99.90;;;;;;5117672;28;20258;-84
2021/01/13 12:30:54;;;;;;;4.20;2.58;;;3.90;99.90;;;;;;5117660;28;20182;-84
2021/01/13 12:33:21;;;;;;;6.15;2.95;;;4.00;99.90;;;;;;5118420;28;20182;-83
2021/01/13 12:35:47;;;;;;;8.35;3.53;;;4.00;99.90;;;;;;5118567;28;20249;-83
2021/01/13 12:38:14;;;;;;;5.88;2.90;;;3.90;99.90;;;;;;5118463;28;20285;-82
2021/01/13 12:40:40;;;;;;;7.97;3.22;;;3.90;99.90;;;;;;5117750;28;20331;-85
2021/01/13 12:43:14;;;;;;;4.15;2.63;;;3.90;99.90;;;;;;5117515;28;20201;-84
2021/01/13 12:45:42;;;;;;;8.45;3.53;;;3.90;99.90;;;;;;5117197;28;20185;-84
2021/01/13 12:48:09;;;;;;;8.55;3.90;;;3.90;99.90;;;;;;5117915;28;20275;-83
2021/01/13 12:50:36;;;;;;;5.70;2.65;;;3.90;99.90;;;;;;5116824;28;20269;-83
2021/01/13 12:53:03;;;;;;;3.90;3.20;;;3.90;99.90;;;;;;5115632;28;20301;-83
2021/01/13 12:55:30;;;;;;;11.13;4.10;;;3.90;99.90;;;;;;5107405;28;20223;-85
2021/01/13 12:57:57;;;;;;;6.53;3.78;;;3.90;99.90;;;;;;5106314;28;20222;-86
2021/01/13 13:00:24;;;;;;;6.10;3.90;;;3.90;99.90;;;;;;5106981;28;20198;-84
2021/01/13 13:02:52;;;;;;;8.90;3.45;;;4.00;99.90;;;;;;5108427;28;20229;-84
2021/01/13 13:05:19;;;;;;;7.50;3.47;;;4.00;99.90;;;;;;5107791;28;20235;-84
2021/01/13 13:07:45;;;;;;;5.05;3.13;;;4.10;99.90;;;;;;5109395;28;20701;-84
2021/01/13 13:10:12;;;;;;;6.30;3.10;;;4.10;99.90;;;;;;5109204;28;20280;-85
2021/01/13 13:12:39;;;;;;;4.38;3.17;;;4.10;99.90;;;;;;5109707;28;20231;-84
2021/01/13 13:15:07;;;;;;;11.68;4.60;;;4.10;99.90;;;;;;5117295;28;20209;-84
2021/01/13 13:17:33;;;;;;;11.68;3.78;;;4.00;99.90;;;;;;5111526;28;20667;-84
2021/01/13 13:20:00;;;;;;;6.35;3.22;;;4.10;99.90;;;;;;5108862;28;20250;-85
2021/01/13 13:22:27;;;;;;;10.20;4.15;;;4.10;99.90;;;;;;5108376;28;20218;-84
2021/01/13 13:24:53;;;;;;;4.43;3.20;;;4.10;99.90;;;;;;5107526;28;20343;-84
2021/01/13 13:27:19;;;;;;;6.90;3.25;;;4.10;99.90;;;;;;5107928;28;20243;-84
2021/01/13 13:29:46;;;;;;;7.60;3.55;;;4.10;99.90;;;;;;5108181;28;20232;-84
2021/01/13 13:32:13;;;;;;;6.72;4.45;;;4.10;99.90;;;;;;5107015;28;20259;-84
2021/01/13 13:34:40;;;;;;;4.20;3.63;;;4.10;99.90;;;;;;5106833;28;20352;-85
2021/01/13 13:37:07;;;;;;;4.38;2.80;;;4.20;99.90;;;;;;5107947;28;20246;-84
2021/01/13 13:39:33;;;;;;;5.20;3.47;;;4.30;99.90;;;;;;5108649;28;20275;-84
2021/01/13 13:42:00;;;;;;;4.05;2.90;;;4.20;99.90;;;;;;5107770;28;20220;-85
2021/01/13 13:44:29;;;;;;;9.38;3.60;;;4.20;99.90;;;;;;5107279;28;20205;-85
2021/01/13 13:46:56;;;;;;;5.07;3.00;;;4.20;99.90;;;;;;5106020;28;20225;-84
2021/01/13 13:49:23;;;;;;;3.90;2.75;;;4.20;99.90;;;;;;5106186;28;20212;-84
2021/01/13 13:51:49;;;;;;;9.25;3.53;;;4.20;99.90;;;;;;5105946;28;20202;-84
2021/01/13 13:54:17;;;;;;;3.38;2.95;;;4.10;99.90;;;;;;5106709;28;20216;-84
2021/01/13 13:56:43;;;;;;;4.32;2.90;;;4.10;99.90;;;;;;5105964;28;20598;-84
2021/01/13 13:59:10;;;;;;;3.70;3.00;;;4.10;99.90;;;;;;5106166;28;20205;-84
2021/01/13 14:01:37;;;;;;;5.03;3.60;;;4.10;99.90;;;;;;5105439;28;20217;-84
2021/01/13 14:04:04;;;;;;;8.35;3.10;;;4.10;99.90;;;;;;5104932;28;20198;-83
2021/01/13 14:06:30;;;;;;;5.13;2.47;;;4.00;99.90;;;;;;5105107;28;20253;-84
2021/01/13 14:08:57;;;;;;;10.05;3.50;;;4.10;99.90;;;;;;5105197;28;20205;-84
2021/01/13 14:11:25;;;;;;;3.85;2.97;;;4.10;99.90;;;;;;5105215;28;20236;-84
2021/01/13 14:13:52;;;;;;;7.63;3.50;;;4.20;99.90;;;;;;5106497;28;20210;-84
2021/01/13 14:16:19;;;;;;;4.38;2.42;;;4.10;99.90;;;;;;5105530;28;20223;-84
2021/01/13 14:18:46;;;;;;;7.05;2.78;;;4.10;99.90;;;;;;5106676;28;20197;-84
2021/01/13 14:21:13;;;;;;;5.50;3.47;;;4.10;99.90;;;;;;5107485;28;20300;-84
2021/01/13 14:23:44;;;;;;;86.07;80.20;;;4.10;99.90;;;;;;5110314;28;20198;-84
2021/01/13 14:26:10;;;;;;;5.35;3.30;;;4.10;99.90;;;;;;5110856;28;20215;-84
2021/01/13 14:28:40;;;;;;;20.77;5.22;;;4.10;99.90;;;;;;5104188;28;20197;-84
2021/01/13 14:31:06;;;;;;;7.53;4.88;;;4.10;99.90;;;;;;5106379;28;20190;-84
2021/01/13 14:33:32;;;;;;;9.98;6.15;;;4.20;99.90;;;;;;5112736;28;20185;-84
2021/01/13 14:35:59;;;;;;;5.18;3.03;;;4.20;99.90;;;;;;5117727;28;20256;-84
2021/01/13 14:38:25;;;;;;;6.35;2.78;;;4.20;99.90;;;;;;5109016;28;20249;-83
2021/01/13 14:40:53;;;;;;;2.88;2.67;;;4.30;99.90;;;;;;5108350;28;20205;-84
2021/01/13 14:43:19;;;;;;;11.68;4.22;;;4.20;99.90;;;;;;5106442;28;20580;-83
2021/01/13 14:45:49;;;;;;;4.47;2.80;;;4.20;99.90;;;;;;5106296;28;20779;-83
2021/01/13 14:48:16;;;;;;;7.40;3.90;;;4.10;99.90;;;;;;5109772;28;20228;-84
2021/01/13 14:50:42;;;;;;;4.55;3.10;;;4.10;99.90;;;;;;5105958;28;20273;-84
2021/01/13 14:53:08;;;;;;;9.10;3.35;;;4.00;99.90;;;;;;5105545;28;20197;-84
2021/01/13 14:55:35;;;;;;;5.18;3.20;;;4.00;99.90;;;;;;5107007;28;20578;-84
2021/01/13 14:58:01;;;;;;;3.45;3.15;;;3.90;99.90;;;;;;5105985;28;20241;-83
2021/01/13 15:00:28;;;;;;;3.80;3.50;;;3.90;99.90;;;;;;5106445;28;20225;-84
2021/01/13 15:02:55;;;;;;;7.05;3.55;;;3.90;99.90;;;;;;5106050;28;20225;-84
2021/01/13 15:05:21;;;;;;;8.30;3.67;;;3.90;99.90;;;;;;5105492;28;20194;-84
2021/01/13 15:07:50;;;;;;;7.95;4.05;;;3.90;99.90;;;;;;5104079;28;20224;-84
2021/01/13 15:10:16;;;;;;;6.25;4.03;;;3.80;99.90;;;;;;5104345;28;20200;-84
2021/01/13 15:12:44;;;;;;;9.25;6.43;;;3.80;99.90;;;;;;5106314;28;20655;-84
2021/01/13 15:15:11;;;;;;;5.72;4.00;;;3.90;99.90;;;;;;5104144;28;20250;-84
2021/01/13 15:17:38;;;;;;;3.50;3.20;;;3.90;99.90;;;;;;5106554;28;20225;-84
2021/01/13 15:20:06;;;;;;;3.65;3.40;;;3.90;99.90;;;;;;5105589;28;20290;-84
2021/01/13 15:22:33;;;;;;;6.30;3.50;;;3.80;99.90;;;;;;5104742;28;20636;-83
2021/01/13 15:24:59;;;;;;;3.58;3.22;;;3.90;99.90;;;;;;5104939;28;20219;-84
2021/01/13 15:27:25;;;;;;;4.75;3.65;;;3.90;99.90;;;;;;5104573;28;20281;-84
2021/01/13 15:29:53;;;;;;;5.35;3.08;;;3.90;99.90;;;;;;5104751;28;20292;-85
2021/01/13 15:32:19;;;;;;;10.52;3.55;;;3.90;99.90;;;;;;5104990;28;20250;-84
2021/01/13 15:34:46;;;;;;;5.97;2.80;;;4.00;99.90;;;;;;5104662;28;20640;-84
2021/01/13 15:37:14;;;;;;;12.25;3.92;;;4.00;99.90;;;;;;5106402;28;20260;-84
2021/01/13 15:39:41;;;;;;;5.25;3.20;;;3.90;99.90;;;;;;5106019;28;20229;-84
2021/01/13 15:42:08;;;;;;;6.65;3.65;;;3.90;99.90;;;;;;5101230;28;20250;-83
2021/01/13 15:44:34;;;;;;;6.15;2.92;;;4.00;99.90;;;;;;5113781;28;20208;-83
2021/01/13 15:47:01;;;;;;;6.72;3.47;;;4.10;99.90;;;;;;5110061;28;20221;-84
2021/01/13 15:49:28;;;;;;;7.90;3.60;;;4.00;99.90;;;;;;5104258;28;20214;-84
2021/01/13 15:51:55;;;;;;;4.85;3.20;;;3.90;99.90;;;;;;5103438;28;20519;-84
2021/01/13 15:54:23;;;;;;;5.60;3.67;;;4.00;99.90;;;;;;5105972;28;20201;-84
2021/01/13 15:56:51;;;;;;;6.40;2.85;;;4.00;99.90;;;;;;5105248;28;20278;-84